createdAt,value
2022-09-12T00:00:08.333Z,5.50
2022-09-12T00:02:34.891Z,5.38
2022-09-12T00:05:01.428Z,5.57
2022-09-12T00:07:28.064Z,5.45
2022-09-12T00:09:54.705Z,5.47
2022-09-12T00:12:21.263Z,5.67
2022-09-12T00:14:47.805Z,6.00
2022-09-12T00:17:14.380Z,5.30
2022-09-12T00:19:40.885Z,4.50
2022-09-12T00:22:07.800Z,4.35
2022-09-12T00:24:34.448Z,3.80
2022-09-12T00:27:01.021Z,4.60
2022-09-12T00:29:27.611Z,4.53
2022-09-12T00:31:54.149Z,4.07
2022-09-12T00:34:20.701Z,4.18
2022-09-12T00:36:47.381Z,3.63
2022-09-12T00:39:16.942Z,4.50
2022-09-12T00:41:44.728Z,4.22
2022-09-12T00:44:12.275Z,3.50
2022-09-12T00:46:48.100Z,3.95
2022-09-12T00:49:15.586Z,4.30
2022-09-12T00:51:47.229Z,4.22
2022-09-12T00:54:19.330Z,4.00
2022-09-12T00:56:49.096Z,4.65
2022-09-12T00:59:21.710Z,4.30
2022-09-12T01:01:51.191Z,4.60
2022-09-12T01:04:22.143Z,4.63
2022-09-12T01:06:51.894Z,4.90
2022-09-12T01:09:21.815Z,4.93
2022-09-12T01:11:50.480Z,5.03
2022-09-12T01:14:18.089Z,5.37
2022-09-12T01:16:46.371Z,4.63
2022-09-12T01:19:40.652Z,4.90
2022-09-12T01:22:07.119Z,5.10
2022-09-12T01:25:07.783Z,4.82
2022-09-12T01:27:49.149Z,4.43
2022-09-12T01:30:24.093Z,4.60
2022-09-12T01:33:10.172Z,4.50
2022-09-12T01:35:56.743Z,5.15
2022-09-12T01:38:31.449Z,5.30
2022-09-12T01:41:09.056Z,4.50
2022-09-12T01:43:56.208Z,5.05
2022-09-12T01:46:49.792Z,4.85
2022-09-12T01:49:23.176Z,4.35
2022-09-12T01:52:20.548Z,4.65
2022-09-12T01:54:53.400Z,4.13
2022-09-12T01:57:39.302Z,4.60
2022-09-12T02:00:10.283Z,4.97
2022-09-12T02:02:39.488Z,4.70
2022-09-12T02:05:10.926Z,4.57
2022-09-12T02:07:44.034Z,4.67
2022-09-12T02:10:19.668Z,4.80
2022-09-12T02:12:52.005Z,4.20
2022-09-12T02:15:23.953Z,4.72
2022-09-12T02:17:52.493Z,4.60
2022-09-12T02:20:37.471Z,4.10
2022-09-12T02:23:15.863Z,4.20
2022-09-12T02:25:47.167Z,4.00
2022-09-12T02:28:27.364Z,3.90
2022-09-12T02:31:23.565Z,4.05
2022-09-12T02:33:50.068Z,4.07
2022-09-12T02:36:28.782Z,4.35
2022-09-12T02:38:55.752Z,5.15
2022-09-12T02:41:23.257Z,4.15
2022-09-12T02:43:51.871Z,4.13
2022-09-12T02:46:23.563Z,3.87
2022-09-12T02:48:50.169Z,4.45
2022-09-12T02:51:20.389Z,4.05
2022-09-12T02:53:49.644Z,4.45
2022-09-12T02:56:24.153Z,4.10
2022-09-12T02:58:51.411Z,4.17
2022-09-12T03:01:40.354Z,4.70
2022-09-12T03:04:22.050Z,4.32
2022-09-12T03:07:21.806Z,4.90
2022-09-12T03:10:14.991Z,4.63
2022-09-12T03:13:02.079Z,4.97
2022-09-12T03:15:54.646Z,5.45
2022-09-12T03:18:35.744Z,4.50
2022-09-12T03:21:17.512Z,4.60
2022-09-12T03:24:04.404Z,5.30
2022-09-12T03:26:35.180Z,4.67
2022-09-12T03:29:06.482Z,4.85
2022-09-12T03:31:33.429Z,5.68
2022-09-12T03:34:00.651Z,5.38
2022-09-12T03:36:29.571Z,5.80
2022-09-12T03:38:56.660Z,5.77
2022-09-12T03:41:23.237Z,5.90
2022-09-12T03:43:49.918Z,5.30
2022-09-12T03:46:16.630Z,5.75
2022-09-12T03:48:43.276Z,5.45
2022-09-12T03:51:10.764Z,6.40
2022-09-12T03:54:08.555Z,5.38
2022-09-12T03:56:26.178Z,5.45
2022-09-12T03:58:52.915Z,6.40
2022-09-12T04:01:20.168Z,5.82
2022-09-12T04:03:52.523Z,5.33
2022-09-12T04:06:23.001Z,5.25
2022-09-12T04:08:52.001Z,4.60
2022-09-12T04:11:22.485Z,5.20
2022-09-12T04:13:49.271Z,4.72
2022-09-12T04:16:16.806Z,5.70
2022-09-12T04:18:44.091Z,5.47
2022-09-12T04:21:15.685Z,4.88
2022-09-12T04:23:43.023Z,5.55
2022-09-12T04:26:12.972Z,5.47
2022-09-12T04:28:40.128Z,4.80
2022-09-12T04:31:13.927Z,5.03
2022-09-12T04:33:40.569Z,5.93
2022-09-12T04:36:10.764Z,6.78
2022-09-12T04:38:38.607Z,5.95
2022-09-12T04:41:14.246Z,6.30
2022-09-12T04:43:41.172Z,6.80
2022-09-12T04:46:09.286Z,6.95
2022-09-12T04:48:39.002Z,6.68
2022-09-12T04:51:09.689Z,6.38
2022-09-12T04:53:37.197Z,6.00
2022-09-12T04:56:06.979Z,6.85
2022-09-12T04:58:34.323Z,6.63
2022-09-12T05:01:21.246Z,6.45
2022-09-12T05:03:48.837Z,6.45
2022-09-12T05:06:19.008Z,6.40
2022-09-12T05:08:46.144Z,6.78
2022-09-12T05:11:16.297Z,6.70
2022-09-12T05:13:43.778Z,6.78
2022-09-12T05:16:12.690Z,7.50
2022-09-12T05:18:39.460Z,6.57
2022-09-12T05:21:09.317Z,7.22
2022-09-12T05:23:35.962Z,7.30
2022-09-12T05:26:04.712Z,7.70
2022-09-12T05:28:34.416Z,6.63
2022-09-12T05:31:11.910Z,7.03
2022-09-12T05:34:11.837Z,6.93
2022-09-12T05:36:38.700Z,7.35
2022-09-12T05:39:05.348Z,7.90
2022-09-12T05:41:33.837Z,7.95
2022-09-12T05:44:03.156Z,7.60
2022-09-12T05:46:42.685Z,7.90
2022-09-12T05:49:36.308Z,7.65
2022-09-12T05:53:25.115Z,7.75
2022-09-12T05:55:17.241Z,8.90
2022-09-12T06:00:55.474Z,7.50
2022-09-12T06:13:59.500Z,8.30
2022-09-12T06:29:21.178Z,9.13
2022-09-12T06:31:47.691Z,8.65
2022-09-12T06:39:48.878Z,9.13
2022-09-12T06:45:00.835Z,9.57
2022-09-12T06:47:28.323Z,8.82
2022-09-12T06:50:28.113Z,8.40
2022-09-12T06:52:45.428Z,8.90
2022-09-12T06:55:48.253Z,9.90
2022-09-12T07:16:52.636Z,12.68
2022-09-12T07:19:19.238Z,13.82
2022-09-12T07:21:45.786Z,14.35
2022-09-12T07:24:12.253Z,14.47
2022-09-12T07:26:41.536Z,13.73
2022-09-12T07:32:02.058Z,14.93
2022-09-12T07:34:28.541Z,17.00
2022-09-12T07:36:54.978Z,15.73
2022-09-12T07:39:21.380Z,17.55
2022-09-12T07:41:48.199Z,17.33
2022-09-12T07:44:14.790Z,16.88
2022-09-12T07:46:41.250Z,17.60
2022-09-12T07:49:08.528Z,17.20
2022-09-12T07:51:35.152Z,16.77
2022-09-12T07:54:01.592Z,17.88
2022-09-12T07:56:31.073Z,16.58
2022-09-12T07:58:58.923Z,16.85
2022-09-12T08:01:25.748Z,16.23
2022-09-12T08:03:56.928Z,16.52
2022-09-12T08:06:24.340Z,16.65
2022-09-12T08:08:52.560Z,18.85
2022-09-12T08:11:21.098Z,16.02
2022-09-12T08:13:52.953Z,17.67
2022-09-12T08:16:23.597Z,15.52
2022-09-12T08:18:51.392Z,16.58
2022-09-12T08:21:21.332Z,15.60
2022-09-12T08:23:52.667Z,15.07
2022-09-12T08:26:19.480Z,15.33
2022-09-12T08:28:46.327Z,15.98
2022-09-12T08:31:15.426Z,13.77
2022-09-12T08:33:42.275Z,13.75
2022-09-12T08:36:12.350Z,14.43
2022-09-12T08:38:41.882Z,14.87
2022-09-12T08:41:13.401Z,14.90
2022-09-12T08:43:56.958Z,13.50
2022-09-12T08:46:36.089Z,14.13
2022-09-12T08:49:04.320Z,13.80
2022-09-12T08:51:34.685Z,14.00
2022-09-12T08:54:03.723Z,13.45
2022-09-12T08:56:36.198Z,12.55
2022-09-12T08:59:03.225Z,13.32
2022-09-12T09:01:32.796Z,13.43
2022-09-12T09:04:16.088Z,11.50
2022-09-12T09:07:04.976Z,11.95
2022-09-12T09:09:54.767Z,12.65
2022-09-12T09:12:27.190Z,12.50
2022-09-12T09:15:22.070Z,12.77
2022-09-12T09:22:13.489Z,12.52
2022-09-12T09:24:51.892Z,16.27
2022-09-12T09:30:22.964Z,13.75
2022-09-12T09:33:38.938Z,12.03
2022-09-12T09:37:01.423Z,11.48
2022-09-12T09:39:39.673Z,11.32
2022-09-12T09:42:23.123Z,13.07
2022-09-12T09:44:52.927Z,11.05
2022-09-12T09:47:19.894Z,11.53
2022-09-12T09:49:47.646Z,11.00
2022-09-12T09:52:39.950Z,10.55
2022-09-12T09:55:18.178Z,9.93
2022-09-12T10:01:01.705Z,9.73
2022-09-12T10:03:32.690Z,10.15
2022-09-12T10:10:15.590Z,11.30
2022-09-12T10:12:42.291Z,10.40
2022-09-12T10:15:28.507Z,10.40
2022-09-12T10:17:56.711Z,10.45
2022-09-12T10:20:33.368Z,9.18
2022-09-12T10:23:48.566Z,9.38
2022-09-12T10:26:19.560Z,8.60
2022-09-12T10:28:54.093Z,10.60
2022-09-12T10:31:29.555Z,9.63
2022-09-12T10:34:22.361Z,9.93
2022-09-12T10:40:56.749Z,8.55
2022-09-12T10:43:54.277Z,7.87
2022-09-12T10:47:03.458Z,8.48
2022-09-12T10:56:50.722Z,8.90
2022-09-12T11:03:41.919Z,6.68
2022-09-12T11:06:29.095Z,6.63
2022-09-12T11:09:06.139Z,6.07
2022-09-12T11:12:02.244Z,6.03
2022-09-12T11:15:31.640Z,5.77
2022-09-12T11:18:24.759Z,4.72
2022-09-12T11:21:09.825Z,5.13
2022-09-12T11:24:07.649Z,3.95
2022-09-12T11:30:50.801Z,3.07
2022-09-12T11:34:05.420Z,3.33
2022-09-12T11:37:18.267Z,3.90
2022-09-12T11:43:54.499Z,3.60
2022-09-12T11:50:00.152Z,3.20
2022-09-12T11:52:59.463Z,2.85
2022-09-12T12:02:14.625Z,2.43
2022-09-12T12:06:06.787Z,2.80
2022-09-12T12:09:15.248Z,2.95
2022-09-12T12:15:59.140Z,2.60
2022-09-12T12:32:31.359Z,2.55
2022-09-12T12:35:41.347Z,2.30
2022-09-12T12:38:29.597Z,3.00
2022-09-12T12:41:17.828Z,2.75
2022-09-12T12:43:45.796Z,2.22
2022-09-12T12:46:14.716Z,2.20
2022-09-12T12:49:20.038Z,2.57
2022-09-12T12:51:57.634Z,2.60
2022-09-12T12:54:31.360Z,2.38
2022-09-12T12:57:04.879Z,1.80
2022-09-12T12:59:32.184Z,2.08
2022-09-12T13:02:00.029Z,2.47
2022-09-12T13:04:30.607Z,2.60
2022-09-12T13:07:07.189Z,2.90
2022-09-12T13:09:39.762Z,2.85
2022-09-12T13:12:10.286Z,2.55
2022-09-12T13:14:51.657Z,2.30
2022-09-12T13:17:22.729Z,2.33
2022-09-12T13:20:10.604Z,2.50
2022-09-12T13:22:42.906Z,2.05
2022-09-12T13:25:25.151Z,2.17
2022-09-12T13:28:04.065Z,2.50
2022-09-12T13:30:33.633Z,2.30
2022-09-12T13:33:10.294Z,2.60
2022-09-12T13:35:41.504Z,2.10
2022-09-12T13:38:13.209Z,2.10
2022-09-12T13:40:57.300Z,2.30
2022-09-12T13:43:40.681Z,2.47
2022-09-12T13:46:09.586Z,2.05
2022-09-12T13:48:36.317Z,1.88
2022-09-12T13:51:06.024Z,2.05
2022-09-12T13:53:47.242Z,2.10
2022-09-12T13:56:17.915Z,2.13
2022-09-12T13:58:56.910Z,2.40
2022-09-12T14:07:55.415Z,2.10
2022-09-12T14:17:37.206Z,2.55
2022-09-12T14:21:10.475Z,2.10
2022-09-12T14:51:35.235Z,2.10
2022-09-12T14:54:02.756Z,1.85
2022-09-12T14:56:55.220Z,2.00
2022-09-12T15:00:14.578Z,1.73
2022-09-12T15:05:27.954Z,1.83
2022-09-12T15:07:56.155Z,1.95
2022-09-12T15:10:33.903Z,2.37
2022-09-12T15:13:15.308Z,2.03
2022-09-12T15:15:47.037Z,2.30
2022-09-12T15:18:15.919Z,2.17
2022-09-12T15:20:44.684Z,1.95
2022-09-12T15:23:20.712Z,2.03
2022-09-12T15:25:47.754Z,2.60
2022-09-12T15:28:19.790Z,1.98
2022-09-12T15:30:50.026Z,2.05
2022-09-12T15:33:18.939Z,1.70
2022-09-12T15:35:45.956Z,1.90
2022-09-12T15:38:12.897Z,1.75
2022-09-12T15:40:40.847Z,1.75
2022-09-12T15:43:07.425Z,1.50
2022-09-12T15:45:35.458Z,1.77
2022-09-12T15:48:03.338Z,1.73
2022-09-12T15:50:30.600Z,1.70
2022-09-12T15:52:57.670Z,1.73
2022-09-12T15:55:28.709Z,2.00
2022-09-12T15:57:55.742Z,1.83
2022-09-12T16:00:22.754Z,2.00
2022-09-12T16:02:54.147Z,1.88
2022-09-12T16:05:25.153Z,1.80
2022-09-12T16:10:36.730Z,1.65
2022-09-12T16:13:04.613Z,1.60
2022-09-12T16:15:31.195Z,1.50
2022-09-12T16:17:57.724Z,1.60
2022-09-12T16:20:24.439Z,1.85
2022-09-12T16:22:50.971Z,1.90
2022-09-12T16:25:18.186Z,2.10
2022-09-12T16:27:45.117Z,1.40
2022-09-12T16:30:13.090Z,1.40
2022-09-12T16:32:39.593Z,1.60
2022-09-12T16:35:08.846Z,1.50
2022-09-12T16:37:35.490Z,1.57
2022-09-12T16:40:04.675Z,1.70
2022-09-12T16:42:31.291Z,1.30
2022-09-12T16:44:57.969Z,1.10
2022-09-12T16:47:24.497Z,1.73
2022-09-12T16:49:51.358Z,2.00
2022-09-12T16:52:19.319Z,1.50
2022-09-12T16:54:46.952Z,1.23
2022-09-12T16:57:13.487Z,1.35
2022-09-12T16:59:39.979Z,1.27
2022-09-12T17:02:07.547Z,1.10
2022-09-12T17:04:34.221Z,1.40
2022-09-12T17:07:00.802Z,1.30
2022-09-12T17:09:28.189Z,1.25
2022-09-12T17:11:55.736Z,1.20
2022-09-12T17:14:22.891Z,1.50
2022-09-12T17:16:51.981Z,1.35
2022-09-12T17:19:22.165Z,1.48
2022-09-12T17:36:05.790Z,1.50
2022-09-12T17:38:34.774Z,1.75
2022-09-12T17:41:23.619Z,1.50
2022-09-12T17:44:16.927Z,1.53
2022-09-12T17:46:43.329Z,1.70
2022-09-12T17:49:17.387Z,1.65
2022-09-12T17:51:45.297Z,1.58
2022-09-12T17:54:16.109Z,1.70
2022-09-12T17:56:44.509Z,1.70
2022-09-12T18:02:19.290Z,1.48
2022-09-12T18:04:46.996Z,1.70
2022-09-12T18:07:18.309Z,1.40
2022-09-12T18:09:47.956Z,1.60
2022-09-12T18:12:15.790Z,1.60
2022-09-12T18:14:42.799Z,1.63
2022-09-12T18:17:32.464Z,1.67
2022-09-12T18:23:05.773Z,1.53
2022-09-12T18:25:33.905Z,1.70
2022-09-12T18:28:00.617Z,1.83
2022-09-12T18:30:48.779Z,1.52
2022-09-12T18:33:23.893Z,1.60
2022-09-12T18:36:27.158Z,1.63
2022-09-12T18:38:45.023Z,1.50
2022-09-12T18:41:37.495Z,1.50
2022-09-12T18:44:05.227Z,1.63
2022-09-12T18:46:35.414Z,1.70
2022-09-12T18:49:07.847Z,1.40
2022-09-12T18:51:36.623Z,1.63
2022-09-12T18:54:06.407Z,1.60
2022-09-12T18:56:37.632Z,1.30
2022-09-12T18:59:06.273Z,1.70
2022-09-12T19:01:35.496Z,1.50
2022-09-12T19:04:05.088Z,1.77
2022-09-12T19:06:35.441Z,1.88
2022-09-12T19:09:07.332Z,1.52
2022-09-12T19:11:35.988Z,1.92
2022-09-12T19:14:03.067Z,2.30
2022-09-12T19:16:29.801Z,2.03
2022-09-12T19:18:57.235Z,1.98
2022-09-12T19:21:27.029Z,1.80
2022-09-12T19:23:57.219Z,2.13
2022-09-12T19:26:24.267Z,1.90
2022-09-12T19:28:50.955Z,1.90
2022-09-12T19:31:20.005Z,2.05
2022-09-12T19:36:47.114Z,1.88
2022-09-12T19:39:15.497Z,1.70
2022-09-12T19:41:43.855Z,1.80
2022-09-12T19:44:11.843Z,1.88
2022-09-12T19:46:38.926Z,1.48
2022-09-12T19:49:05.939Z,2.00
2022-09-12T19:51:33.911Z,2.00
2022-09-12T20:30:10.276Z,2.33
2022-09-12T20:37:25.842Z,2.00
2022-09-12T20:40:44.653Z,2.00
2022-09-12T20:48:00.228Z,2.08
2022-09-12T20:57:45.866Z,2.00
2022-09-12T21:02:32.395Z,2.28
2022-09-12T21:24:12.329Z,2.22
2022-09-12T21:27:16.459Z,2.17
2022-09-12T21:30:10.758Z,2.35
2022-09-12T21:35:24.922Z,2.45
2022-09-12T21:49:48.314Z,2.13
2022-09-12T22:04:55.916Z,2.57
2022-09-12T22:07:54.397Z,2.50
2022-09-12T23:23:15.618Z,2.50
2022-09-12T23:56:53.262Z,2.60
